Flight Track Log - Related Links

Times and Time Zones

All times are in EST time to prevent confusion due to time zone crossing. See the FIN77 flight status page for this flight to view local times or setup timezone preferences in your user account.


Time Position Orientation Groundspeed Altitude Reporting Facility
EST Latitude Longitude Course Direction KTS MPH feet Rate Location/Type
Sun 10:33:08 AM 60.3060 24.8900 329° Northwest 153 176 1,400  Level FlightAware ADS-B
Sun 10:33:54 AM 60.3050 24.8320 268° West 161 185 2,300 1,029 Climbing FlightAware ADS-B
Sun 10:34:18 AM 60.3180 24.8050 314° West 190 219 2,600 1,080 Climbing FlightAware ADS-B
Sun 10:34:44 AM 60.3410 24.7860 338° Northwest 223 257 3,200 2,400 Climbing FlightAware ADS-B
Sun 10:35:28 AM 60.3850 24.8270 25° Northeast 246 283 5,400 2,667 Climbing FlightAware ADS-B
Sun 10:35:56 AM 60.3980 24.8850 66° East 288 331 6,400 2,206 Climbing FlightAware ADS-B
Sun 10:36:36 AM 60.3760 24.9870 114° Southeast 305 351 7,900 2,325 Climbing FlightAware ADS-B
Sun 10:37:16 AM 60.3470 25.0880 120° Southeast 321 369 9,500 1,976 Climbing FlightAware ADS-B
Sun 10:37:58 AM 60.3270 25.2110 108° East 341 392 10,600 1,291 Climbing FlightAware ADS-B
Sun 10:38:35 AM 60.3170 25.3360 99° East 379 436 11,200 1,301 Climbing FlightAware ADS-B
Sun 10:39:21 AM 60.3020 25.5020 100° East 406 467 12,400 1,897 Climbing FlightAware ADS-B
Sun 10:40:32 AM 60.2790 25.7710 100° East 421 484 14,900 2,015 Climbing FlightAware ADS-B
Sun 10:41:35 AM 60.2570 26.0180 100° East 435 501 16,900 1,842 Climbing FlightAware ADS-B
Sun 10:42:13 AM 60.2430 26.1740 100° East 447 514 18,000 1,636 Climbing FlightAware ADS-B
Sun 10:42:41 AM 60.2330 26.2870 100° East 454 522 18,700 1,588 Climbing FlightAware ADS-B
Sun 10:43:21 AM 60.2180 26.4510 100° East 462 532 19,800 1,556 Climbing FlightAware ADS-B
Sun 10:44:02 AM 60.2020 26.6260 100° East 474 545 20,800 1,446 Climbing FlightAware ADS-B
Sun 10:44:44 AM 60.1840 26.8170 101° East 486 559 21,800 1,378 Climbing FlightAware ADS-B
Sun 10:45:16 AM 60.1700 26.9610 101° East 492 566 22,500 1,352 Climbing FlightAware ADS-B
Sun 10:45:55 AM 60.1540 27.1320 101° East 499 574 23,400 1,247 Climbing FlightAware ADS-B
Sun 10:46:33 AM 60.1370 27.3040 101° East 507 583 24,100 1,029 Climbing FlightAware ADS-B
Sun 10:47:05 AM 60.1220 27.4540 101° East 517 595 24,600 1,031 Climbing FlightAware ADS-B
Sun 10:47:37 AM 60.1060 27.6080 102° East 523 602 25,200 1,048 Climbing FlightAware ADS-B
Sun 10:48:08 AM 60.0910 27.7540 102° East 528 608 25,700 876 Climbing FlightAware ADS-B
Sun 10:49:06 AM 60.0620 28.0340 102° East 541 623 26,500 906 Climbing FlightAware ADS-B
Sun 10:49:54 AM 60.0370 28.2680 102° East 549 632 27,300 889 Climbing FlightAware ADS-B
Sun 10:50:27 AM 60.0200 28.4300 102° East 553 636 27,700 783 Climbing FlightAware ADS-B
Sun 10:51:03 AM 59.9990 28.6180 103° East 561 646 28,200 741 Climbing FlightAware ADS-B
Sun 10:51:48 AM 59.9740 28.8470 102° East 569 655 28,700 786 Climbing FlightAware ADS-B
Sun 10:52:27 AM 59.9510 29.0500 103° East 573 659 29,300 684 Climbing FlightAware ADS-B
Sun 10:53:07 AM 59.9290 29.2470 102° East 579 666 29,600 632 Climbing FlightAware ADS-B
Sun 10:53:43 AM 59.9060 29.4410 103° East 583 671 30,100 1,125 Climbing FlightAware ADS-B
Sun 10:54:27 AM 59.8800 29.6640 103° East 574 661 31,100 1,037 Climbing FlightAware ADS-B
Sun 10:55:04 AM 59.8570 29.8570 103° East 577 664 31,500 761 Climbing FlightAware ADS-B
Sun 10:55:38 AM 59.8360 30.0350 103° East 578 665 32,000 759 Climbing FlightAware ADS-B
Sun 10:56:31 AM 59.8130 30.3050 100° East 572 658 32,600 809 Climbing FlightAware ADS-B
Sun 10:57:07 AM 59.8090 30.4920 92° East 564 649 33,200 935 Climbing FlightAware ADS-B
Sun 10:57:48 AM 59.8140 30.7050 87° East 554 638 33,800 750 Climbing FlightAware ADS-B
Sun 10:58:35 AM 59.8350 30.9450 80° East 546 628 34,300 516 Climbing FlightAware ADS-B
Sun 10:59:21 AM 59.8550 31.1680 80° East 550 633 34,600 444 Climbing FlightAware ADS-B
Sun 10:59:56 AM 59.8700 31.3370 80° East 550 633 34,900 333 Climbing FlightAware ADS-B
Sun 11:00:33 AM 59.8870 31.5210 79° East 550 633 35,000 78 Climbing FlightAware ADS-B
Sun 11:01:13 AM 59.9040 31.7180 80° East 543 625 35,000  Level FlightAware ADS-B
Sun 11:01:42 AM 59.9160 31.8690 81° East 543 625 35,000  Level FlightAware ADS-B
Sun 11:02:21 AM 59.9320 32.0530 80° East 544 626 35,000  Level FlightAware ADS-B
Sun 11:02:48 AM 59.9430 32.1830 80° East 544 626 35,000  Level FlightAware ADS-B
Sun 11:03:27 AM 59.9590 32.3830 81° East 544 626 35,000  Level FlightAware ADS-B
Sun 11:04:04 AM 59.9740 32.5700 81° East 540 621 35,000  Level FlightAware ADS-B
Sun 11:04:45 AM 59.9890 32.7630 81° East 540 621 35,000  Level FlightAware ADS-B
Sun 11:05:40 AM 60.0090 33.0390 82° East 539 620 35,000  Level FlightAware ADS-B
Sun 11:06:10 AM 60.0190 33.1740 82° East 538 619 35,000  Level FlightAware ADS-B
Sun 11:06:52 AM 60.0360 33.3960 81° East 540 621 35,000  Level FlightAware ADS-B
Sun 11:07:20 AM 60.0450 33.5240 82° East 541 623 35,000  Level FlightAware ADS-B
Sun 11:07:53 AM 60.0570 33.6930 82° East 542 624 35,000  Level FlightAware ADS-B
Sun 11:08:41 AM 60.0730 33.9340 82° East 543 625 35,000  Level FlightAware ADS-B
Sun 11:09:13 AM 60.0830 34.0830 82° East 544 626 35,000  Level FlightAware ADS-B
Sun 11:10:04 AM 60.1000 34.3430 82° East 543 625 35,000  Level FlightAware ADS-B
Sun 11:11:00 AM 60.1180 34.6230 83° East 540 621 35,000  Level FlightAware ADS-B
Sun 11:11:42 AM 60.1300 34.8220 83° East 536 617 35,000  Level FlightAware ADS-B
Sun 11:12:50 AM 60.1500 35.1590 83° East 526 605 35,000  Level FlightAware ADS-B
Sun 11:13:35 AM 60.1630 35.3790 83° East 527 606 35,000  Level FlightAware ADS-B
Sun 11:14:36 AM 60.1780 35.6500 84° East 528 608 35,000  Level FlightAware ADS-B
Sun 11:15:30 AM 60.2000 35.9360 81° East 523 602 35,000  Level FlightAware ADS-B
Sun 11:16:11 AM 60.2220 36.1170 76° East 519 597 35,000  Level FlightAware ADS-B
Sun 11:16:45 AM 60.2420 36.2870 77° East 520 598 35,000  Level FlightAware ADS-B
Sun 11:17:40 AM 60.2720 36.5470 77° East 522 601 35,000  Level FlightAware ADS-B
Sun 11:18:20 AM 60.2920 36.7270 77° East 521 600 35,000  Level FlightAware ADS-B
Sun 11:18:50 AM 60.3070 36.8610 77° East 521 600 35,000  Level FlightAware ADS-B
Sun 11:19:15 AM 60.3220 36.9970 77° East 521 600 35,000  Level FlightAware ADS-B
Sun 11:19:55 AM 60.3420 37.1850 78° East 522 601 35,000  Level FlightAware ADS-B
Sun 11:20:41 AM 60.3650 37.3960 77° East 525 604 35,000  Level FlightAware ADS-B
Sun 11:21:05 AM 60.3770 37.5080 78° East 527 606 35,000  Level FlightAware ADS-B
Sun 11:21:41 AM 60.3940 37.6780 78° East 529 609 35,000  Level FlightAware ADS-B
Sun 11:22:30 AM 60.4200 37.9300 78° East 531 611 35,000  Level FlightAware ADS-B
Sun 11:22:55 AM 60.4320 38.0470 78° East 532 612 35,000  Level FlightAware ADS-B
Sun 11:23:30 AM 60.4490 38.2120 78° East 533 613 35,000  Level FlightAware ADS-B
Sun 11:24:00 AM 60.4630 38.3580 79° East 533 613 35,000  Level FlightAware ADS-B
Sun 11:24:41 AM 60.4830 38.5630 79° East 532 612 35,000  Level FlightAware ADS-B
Sun 11:25:12 AM 60.4950 38.6880 79° East 533 613 35,000  Level FlightAware ADS-B
Sun 11:25:49 AM 60.5100 38.8430 79° East 533 613 35,000  Level FlightAware ADS-B
Sun 11:26:25 AM 60.5240 38.9940 79° East 533 613 35,000  Level FlightAware ADS-B
Sun 11:27:13 AM 60.5430 39.1940 79° East 533 613 35,000  Level FlightAware ADS-B
Sun 11:28:02 AM 60.5630 39.3990 79° East 533 613 35,000  Level FlightAware ADS-B
Sun 11:28:26 AM 60.5730 39.5000 79° East 533 613 35,000  Level FlightAware ADS-B
Sun 11:29:02 AM 60.5870 39.6510 79° East 533 613 35,000  Level FlightAware ADS-B
Sun 11:29:38 AM 60.6010 39.8020 79° East 533 613 35,000  Level FlightAware ADS-B
Sun 11:30:14 AM 60.6160 39.9530 78° East 533 613 35,000  Level FlightAware ADS-B
Sun 11:30:50 AM 60.6300 40.1040 79° East 533 613 35,000  Level FlightAware ADS-B
Sun 11:31:24 AM 60.6440 40.2460 79° East 533 613 35,000  Level FlightAware ADS-B
Sun 11:34:00 AM 60.7719 40.8868 68° East  Level Estimated
Sun 11:35:00 AM 60.8202 41.1346 68° East  Level Estimated
Sun 11:36:00 AM 60.8681 41.3832 68° East  Level Estimated
Sun 11:37:00 AM 60.9156 41.6325 69° East  Level Estimated
Sun 11:38:00 AM 60.9625 41.8825 69° East  Level Estimated
Sun 11:39:00 AM 61.0091 42.1333 69° East  Level Estimated
Sun 11:40:00 AM 61.0551 42.3848 69° East  Level Estimated
Sun 11:41:00 AM 61.1007 42.6371 69° East  Level Estimated
Sun 11:42:00 AM 61.1458 42.8901 70° East  Level Estimated
Sun 11:43:00 AM 61.1904 43.1437 70° East  Level Estimated
Sun 11:44:00 AM 61.2346 43.3982 70° East  Level Estimated
Sun 11:45:00 AM 61.2783 43.6533 70° East  Level Estimated
Sun 11:46:00 AM 61.3215 43.9091 71° East  Level Estimated
Sun 11:47:00 AM 61.3642 44.1656 71° East  Level Estimated
Sun 11:48:00 AM 61.4064 44.4228 71° East  Level Estimated
Sun 11:49:00 AM 61.4482 44.6808 71° East  Level Estimated
Sun 11:50:00 AM 61.4894 44.9394 71° East  Level Estimated
Sun 11:51:00 AM 61.5302 45.1987 72° East  Level Estimated
Sun 11:52:00 AM 61.5705 45.4586 72° East  Level Estimated
Sun 11:53:00 AM 61.6103 45.7192 72° East  Level Estimated
Sun 11:54:00 AM 61.6496 45.9805 72° East  Level Estimated
Sun 11:55:00 AM 61.6884 46.2425 73° East  Level Estimated
Sun 11:56:00 AM 61.7266 46.5051 73° East  Level Estimated
Sun 11:57:00 AM 61.7644 46.7684 73° East  Level Estimated
Sun 11:58:00 AM 61.8017 47.0323 73° East  Level Estimated
Sun 11:59:00 AM 61.8385 47.2968 73° East  Level Estimated
Sun 12:00:00 PM 61.8747 47.5620 74° East  Level Estimated
Sun 12:01:00 PM 61.9105 47.8278 74° East  Level Estimated
Sun 12:02:00 PM 61.9457 48.0942 74° East  Level Estimated
Sun 12:03:00 PM 61.9804 48.3613 74° East  Level Estimated
Sun 12:04:00 PM 62.0146 48.6289 75° East  Level Estimated
Sun 12:05:00 PM 62.0483 48.8971 75° East  Level Estimated
Sun 12:06:00 PM 62.0815 49.1660 75° East  Level Estimated
Sun 12:07:00 PM 62.1141 49.4354 75° East  Level Estimated
Sun 12:08:00 PM 62.1462 49.7053 76° East  Level Estimated
Sun 12:09:00 PM 62.1778 49.9759 76° East  Level Estimated
Sun 12:10:00 PM 62.2089 50.2470 76° East  Level Estimated
Sun 12:11:00 PM 62.2394 50.5187 76° East  Level Estimated
Sun 12:12:00 PM 62.2694 50.7909 77° East  Level Estimated
Sun 12:13:00 PM 62.2988 51.0636 77° East  Level Estimated
Sun 12:14:00 PM 62.3278 51.3369 77° East  Level Estimated
Sun 12:15:00 PM 62.3562 51.6107 77° East  Level Estimated
Sun 12:16:00 PM 62.3840 51.8850 78° East  Level Estimated
Sun 12:17:00 PM 62.4113 52.1598 78° East  Level Estimated
Sun 12:18:00 PM 62.4381 52.4351 78° East  Level Estimated
Sun 12:19:00 PM 62.4643 52.7109 78° East  Level Estimated
Sun 12:20:00 PM 62.4900 52.9872 79° East  Level Estimated
Sun 12:21:00 PM 62.5151 53.2640 79° East  Level Estimated
Sun 12:22:00 PM 62.5397 53.5412 79° East  Level Estimated
Sun 12:23:00 PM 62.5637 53.8189 79° East  Level Estimated
Sun 12:24:00 PM 62.5872 54.0970 79° East  Level Estimated
Sun 12:25:00 PM 62.6101 54.3755 80° East  Level Estimated
Sun 12:26:00 PM 62.6325 54.6545 80° East  Level Estimated
Sun 12:27:00 PM 62.6543 54.9339 80° East  Level Estimated
Sun 12:28:00 PM 62.6756 55.2137 80° East  Level Estimated
Sun 12:29:00 PM 62.6963 55.4939 81° East  Level Estimated
Sun 12:30:00 PM 62.7165 55.7744 81° East  Level Estimated
Sun 12:31:00 PM 62.7360 56.0554 81° East  Level Estimated
Sun 12:32:00 PM 62.7551 56.3367 81° East  Level Estimated
Sun 12:33:00 PM 62.7735 56.6184 82° East  Level Estimated
Sun 12:34:00 PM 62.7914 56.9004 82° East  Level Estimated
Sun 12:35:00 PM 62.8088 57.1828 82° East  Level Estimated
Sun 12:36:00 PM 62.8255 57.4655 82° East  Level Estimated
Sun 12:37:00 PM 62.8417 57.7485 83° East  Level Estimated
Sun 12:38:00 PM 62.8574 58.0318 83° East  Level Estimated
Sun 12:39:00 PM 62.8724 58.3154 83° East  Level Estimated
Sun 12:40:00 PM 62.8869 58.5993 83° East  Level Estimated
Sun 12:41:00 PM 62.9008 58.8835 84° East  Level Estimated
Sun 12:42:00 PM 62.9142 59.1679 84° East  Level Estimated
Sun 12:43:00 PM 62.9270 59.4526 84° East  Level Estimated
Sun 12:44:00 PM 62.9392 59.7376 84° East  Level Estimated
Sun 12:45:00 PM 62.9508 60.0227 85° East  Level Estimated
Sun 12:46:00 PM 62.9618 60.3081 85° East  Level Estimated
Sun 12:47:00 PM 62.9723 60.5937 85° East  Level Estimated
Sun 12:48:00 PM 62.9822 60.8795 86° East  Level Estimated
Sun 12:49:00 PM 62.9916 61.1655 86° East  Level Estimated
Sun 12:50:00 PM 63.0003 61.4517 86° East  Level Estimated
Sun 12:51:00 PM 63.0085 61.7380 86° East  Level Estimated
Sun 12:52:00 PM 63.0160 62.0245 87° East  Level Estimated
Sun 12:53:00 PM 63.0231 62.3111 87° East  Level Estimated
Sun 12:54:00 PM 63.0295 62.5979 87° East  Level Estimated
Sun 12:55:00 PM 63.0353 62.8848 87° East  Level Estimated
Sun 12:56:00 PM 63.0406 63.1717 88° East  Level Estimated
Sun 12:57:00 PM 63.0453 63.4588 88° East  Level Estimated
Sun 12:58:00 PM 63.0494 63.7460 88° East  Level Estimated
Sun 12:59:00 PM 63.0529 64.0333 88° East  Level Estimated
Sun 12:59:44 PM 61.8610 66.6090 89° East 499 574 35,000  Level FlightAware ADS-B
Sun 01:00:00 PM 63.0559 64.3206 89° East  Level Estimated
Sun 01:00:54 PM 61.8430 66.9210 97° East 497 572 35,000  Level FlightAware ADS-B
Sun 01:01:00 PM 63.0582 64.6079 89° East  Level Estimated
Sun 01:01:08 PM 61.8390 67.0090 95° East 497 572 35,000  Level FlightAware ADS-B
Sun 01:02:02 PM 61.8240 67.2640 97° East 498 573 35,000  Level FlightAware ADS-B
Sun 01:02:32 PM 61.8140 67.4180 98° East 500 575 35,000  Level FlightAware ADS-B
Sun 01:03:14 PM 61.8020 67.6160 97° East 502 578 35,000  Level FlightAware ADS-B
Sun 01:04:02 PM 61.7880 67.8490 97° East 501 577 35,000  Level FlightAware ADS-B
Sun 01:04:33 PM 61.7780 67.9950 98° East 501 577 35,000  Level FlightAware ADS-B
Sun 01:05:08 PM 61.7660 68.1750 98° East 501 577 35,000  Level FlightAware ADS-B
Sun 01:06:08 PM 61.7470 68.4590 98° East 498 573 35,000  Level FlightAware ADS-B
Sun 01:07:02 PM 61.7290 68.7220 98° East 497 572 35,000  Level FlightAware ADS-B
Sun 01:07:33 PM 61.7190 68.8560 99° East 496 571 35,000  Level FlightAware ADS-B
Sun 01:08:08 PM 61.7060 69.0340 99° East 496 571 35,000  Level FlightAware ADS-B
Sun 01:09:14 PM 61.6830 69.3480 99° East 495 570 35,000  Level FlightAware ADS-B
Sun 01:09:44 PM 61.6720 69.4890 99° East 494 568 35,000  Level FlightAware ADS-B
Sun 01:10:44 PM 61.6500 69.7730 99° East 491 565 35,000  Level FlightAware ADS-B
Sun 01:11:50 PM 61.6270 70.0550 100° East 487 560 35,000  Level FlightAware ADS-B
Sun 01:12:08 PM 61.6190 70.1630 99° East 487 560 35,000  Level FlightAware ADS-B
Sun 01:13:00 PM 61.6010 70.3690 100° East 487 560 35,000  Level FlightAware ADS-B
Sun 01:13:36 PM 61.5890 70.5120 100° East 487 560 35,000  Level FlightAware ADS-B
Sun 01:14:25 PM 61.5730 70.7060 100° East 487 560 35,000  Level FlightAware ADS-B
Sun 01:15:13 PM 61.5570 70.8960 100° East 487 560 35,000  Level FlightAware ADS-B
Sun 01:15:37 PM 61.5490 70.9910 100° East 487 560 35,000  Level FlightAware ADS-B
Sun 01:16:13 PM 61.5370 71.1330 100° East 487 560 35,000  Level FlightAware ADS-B
Sun 01:16:49 PM 61.5250 71.2760 100° East 487 560 35,000  Level FlightAware ADS-B
Sun 01:17:25 PM 61.5130 71.4180 100° East 487 560 35,000  Level FlightAware ADS-B
Sun 01:18:01 PM 61.5010 71.5610 100° East 487 560 35,000  Level FlightAware ADS-B
Sun 01:18:37 PM 61.4890 71.7030 100° East 487 560 35,000  Level FlightAware ADS-B
Sun 01:19:14 PM 61.4770 71.8490 100° East 487 560 35,000  Level FlightAware ADS-B
Sun 01:20:50 PM 61.3970 72.5900 102° East 495 570 35,000  Level FlightAware ADS-B
Sun 01:21:08 PM 61.3870 72.6860 102° East 495 570 35,000  Level FlightAware ADS-B
Sun 01:21:50 PM 61.3670 72.8770 102° East 494 568 35,000  Level FlightAware ADS-B
Sun 01:22:26 PM 61.3490 73.0550 102° East 492 566 35,000  Level FlightAware ADS-B
Sun 01:22:53 PM 61.3350 73.1890 102° East 492 566 35,000  Level FlightAware ADS-B
Sun 01:23:32 PM 61.3170 73.3610 102° East 490 564 35,000  Level FlightAware ADS-B
Sun 01:24:16 PM 61.2950 73.5590 103° East 491 565 35,000  Level FlightAware ADS-B
Sun 01:25:03 PM 61.2720 73.7700 103° East 491 565 35,000  Level FlightAware ADS-B
Sun 01:25:40 PM 61.2540 73.9350 103° East 493 567 35,000  Level FlightAware ADS-B
Sun 01:26:50 PM 61.2150 74.2780 103° East 497 572 35,000  Level FlightAware ADS-B
Sun 01:27:15 PM 61.2040 74.3770 103° East 497 572 35,000  Level FlightAware ADS-B
Sun 01:27:55 PM 61.1840 74.5510 103° East 497 572 35,000  Level FlightAware ADS-B
Sun 01:28:31 PM 61.1680 74.6930 103° East 497 572 35,000  Level FlightAware ADS-B
Sun 01:29:08 PM 61.1520 74.8390 103° East 497 572 35,000  Level FlightAware ADS-B
Sun 01:29:44 PM 61.1360 74.9820 103° East 497 572 35,000  Level FlightAware ADS-B
Sun 01:30:20 PM 61.1200 75.1230 103° East 497 572 35,000  Level FlightAware ADS-B
Sun 01:30:56 PM 61.1040 75.2650 103° East 497 572 35,000  Level FlightAware ADS-B
Sun 01:31:33 PM 61.0880 75.4110 103° East 497 572 35,000  Level FlightAware ADS-B
Sun 01:32:38 PM 61.0220 75.8680 106° East 496 571 35,000  Level FlightAware ADS-B
Sun 01:33:08 PM 61.0040 76.0110 104° East 496 571 35,000  Level FlightAware ADS-B
Sun 01:33:48 PM 60.9850 76.1670 104° East 496 571 35,000  Level FlightAware ADS-B
Sun 01:34:25 PM 60.9590 76.3500 106° East 497 572 35,000  Level FlightAware ADS-B
Sun 01:35:16 PM 60.9340 76.5480 104° East 497 572 35,000  Level FlightAware ADS-B
Sun 01:35:40 PM 60.9210 76.6410 106° East 497 572 35,000  Level FlightAware ADS-B
Sun 01:36:17 PM 60.9030 76.7850 104° East 497 572 35,000  Level FlightAware ADS-B
Sun 01:37:27 PM 60.8670 77.0560 105° East 497 572 35,000  Level FlightAware ADS-B
Sun 01:38:03 PM 60.8490 77.1960 105° East 497 572 35,000  Level FlightAware ADS-B
Sun 01:38:39 PM 60.8310 77.3350 105° East 497 572 35,000  Level FlightAware ADS-B
Sun 01:39:16 PM 60.8120 77.4790 105° East 497 572 35,000  Level FlightAware ADS-B
Sun 01:39:53 PM 60.7930 77.6220 105° East 497 572 35,000  Level FlightAware ADS-B
Sun 01:40:54 PM 60.7620 77.8580 105° East 497 572 35,000  Level FlightAware ADS-B
Sun 01:41:42 PM 60.7380 78.0430 105° East 497 572 35,000  Level FlightAware ADS-B
Sun 01:42:18 PM 60.7200 78.1820 105° East 497 572 35,000  Level FlightAware ADS-B
Sun 01:42:54 PM 60.7020 78.3210 105° East 497 572 35,000  Level FlightAware ADS-B
Sun 01:43:18 PM 60.6890 78.4140 106° East 497 572 35,000  Level FlightAware ADS-B
Sun 01:44:19 PM 60.6580 78.6490 105° East 497 572 35,000  Level FlightAware ADS-B
Sun 01:47:00 PM 60.5967 79.3504 100° East  Level Estimated
Sun 01:48:00 PM 60.5730 79.6111 100° East  Level Estimated
Sun 01:49:00 PM 60.5487 79.8714 101° East  Level Estimated
Sun 01:50:00 PM 60.5239 80.1313 101° East  Level Estimated
Sun 01:51:00 PM 60.4986 80.3909 101° East  Level Estimated
Sun 01:52:00 PM 60.4729 80.6500 101° East  Level Estimated
Sun 01:53:00 PM 60.4466 80.9087 102° East  Level Estimated
Sun 01:54:00 PM 60.4198 81.1669 102° East  Level Estimated
Sun 01:55:00 PM 60.3925 81.4248 102° East  Level Estimated
Sun 01:56:00 PM 60.3647 81.6822 102° East  Level Estimated
Sun 01:57:00 PM 60.3364 81.9392 102° East  Level Estimated
Sun 01:58:00 PM 60.3076 82.1957 103° East  Level Estimated
Sun 01:59:00 PM 60.2784 82.4518 103° East  Level Estimated
Sun 02:00:00 PM 60.2486 82.7074 103° East  Level Estimated
Sun 02:01:00 PM 60.2184 82.9625 103° East  Level Estimated
Sun 02:02:00 PM 60.1876 83.2171 104° East  Level Estimated
Sun 02:03:00 PM 60.1564 83.4713 104° East  Level Estimated
Sun 02:04:00 PM 60.1247 83.7250 104° East  Level Estimated
Sun 02:05:00 PM 60.0925 83.9782 104° East  Level Estimated
Sun 02:06:00 PM 60.0598 84.2309 104° East  Level Estimated
Sun 02:07:00 PM 60.0266 84.4831 105° East  Level Estimated
Sun 02:08:00 PM 59.9930 84.7348 105° East  Level Estimated
Sun 02:09:00 PM 59.9589 84.9860 105° East  Level Estimated
Sun 02:09:11 PM 60.0870 86.0290 105° East 507 583 35,000  Level FlightAware ADS-B
Sun 02:10:25 PM 60.0640 86.3130 99° East 507 583 35,000  Level FlightAware ADS-B
Sun 02:10:49 PM 60.0560 86.4080 100° East 507 583 35,000  Level FlightAware ADS-B
Sun 02:11:13 PM 60.0490 86.5020 98° East 507 583 35,000  Level FlightAware ADS-B
Sun 02:12:12 PM 60.0300 86.7350 99° East 507 583 35,000  Level FlightAware ADS-B
Sun 02:13:13 PM 60.0110 86.9750 99° East 507 583 35,000  Level FlightAware ADS-B
Sun 02:13:49 PM 60.0000 87.1170 99° East 507 583 35,000  Level FlightAware ADS-B
Sun 02:14:25 PM 59.9890 87.2590 99° East 507 583 35,000  Level FlightAware ADS-B
Sun 02:15:01 PM 59.9780 87.4010 99° East 507 583 35,000  Level FlightAware ADS-B
Sun 02:16:01 PM 59.9590 87.6370 99° East 507 583 35,000  Level FlightAware ADS-B
Sun 02:16:37 PM 59.9480 87.7780 99° East 507 583 35,000  Level FlightAware ADS-B
Sun 02:17:13 PM 59.9360 87.9200 100° East 507 583 35,000  Level FlightAware ADS-B
Sun 02:18:02 PM 59.9210 88.1120 99° East 507 583 35,000  Level FlightAware ADS-B
Sun 02:18:38 PM 59.9100 88.2540 99° East 507 583 35,000  Level FlightAware ADS-B
Sun 02:19:14 PM 59.8980 88.3950 100° East 507 583 35,000 66 Level FlightAware ADS-B
Sun 02:22:00 PM 59.7803 89.0728 109° East  Level Estimated
Sun 02:23:00 PM 59.7369 89.3166 109° East  Level Estimated
Sun 02:24:00 PM 59.6931 89.5598 110° East  Level Estimated
Sun 02:25:00 PM 59.6488 89.8023 110° East  Level Estimated
Sun 02:26:00 PM 59.6041 90.0442 110° East  Level Estimated
Sun 02:27:00 PM 59.5589 90.2854 110° East  Level Estimated
Sun 02:28:00 PM 59.5133 90.5260 110° East  Level Estimated
Sun 02:29:00 PM 59.4672 90.7659 111° Southeast  Level Estimated
Sun 02:30:00 PM 59.4207 91.0052 111° Southeast  Level Estimated
Sun 02:31:00 PM 59.3738 91.2438 111° Southeast  Level Estimated
Sun 02:32:00 PM 59.3264 91.4818 111° Southeast  Level Estimated
Sun 02:33:00 PM 59.2786 91.7191 111° Southeast  Level Estimated
Sun 02:34:00 PM 59.2304 91.9557 112° Southeast  Level Estimated
Sun 02:35:00 PM 59.1817 92.1916 112° Southeast  Level Estimated
Sun 02:36:00 PM 59.1326 92.4269 112° Southeast  Level Estimated
Sun 02:37:00 PM 59.0831 92.6615 112° Southeast  Level Estimated
Sun 02:38:00 PM 59.0332 92.8954 112° Southeast  Level Estimated
Sun 02:39:00 PM 58.9829 93.1287 113° Southeast  Level Estimated
Sun 02:40:00 PM 58.9321 93.3612 113° Southeast  Level Estimated
Sun 02:41:00 PM 58.8809 93.5931 113° Southeast  Level Estimated
Sun 02:42:00 PM 58.8293 93.8243 113° Southeast  Level Estimated
Sun 02:43:00 PM 58.7773 94.0548 113° Southeast  Level Estimated
Sun 02:44:00 PM 58.7249 94.2846 114° Southeast  Level Estimated
Sun 02:45:00 PM 58.6720 94.5137 114° Southeast  Level Estimated
Sun 02:46:00 PM 58.6188 94.7421 114° Southeast  Level Estimated
Sun 02:47:00 PM 58.5652 94.9698 114° Southeast  Level Estimated
Sun 02:48:00 PM 58.5111 95.1968 114° Southeast  Level Estimated
Sun 02:48:57 PM 58.4220 96.4470 115° Southeast 510 587 37,000  Level FlightAware ADS-B
Sun 02:49:00 PM 58.4567 95.4231 115° Southeast  Level Estimated
Sun 02:49:31 PM 58.3840 96.5820 118° Southeast 507 583 37,000  Level FlightAware ADS-B
Sun 02:49:41 PM 58.3750 96.6150 117° Southeast 507 583 37,000  Level FlightAware ADS-B
Sun 02:51:01 PM 58.2880 96.9250 118° Southeast 509 586 37,000  Level FlightAware ADS-B
Sun 02:51:56 PM 58.2250 97.1400 119° Southeast 509 586 37,000  Level FlightAware ADS-B
Sun 02:53:01 PM 58.1640 97.3580 118° Southeast 509 586 37,000  Level FlightAware ADS-B
Sun 02:53:42 PM 58.1050 97.5550 119° Southeast 505 581 37,000  Level FlightAware ADS-B
Sun 02:54:21 PM 58.0670 97.6830 119° Southeast 505 581 37,000  Level FlightAware ADS-B
Sun 02:54:57 PM 58.0330 97.8010 119° Southeast 505 581 37,000  Level FlightAware ADS-B
Sun 02:55:21 PM 57.9890 97.9470 120° Southeast 509 586 37,000  Level FlightAware ADS-B
Sun 02:56:01 PM 57.9500 98.0790 119° Southeast 509 586 37,000  Level FlightAware ADS-B
Sun 02:56:37 PM 57.9150 98.1980 119° Southeast 509 586 37,000  Level FlightAware ADS-B
Sun 02:57:37 PM 57.8430 98.4340 120° Southeast 503 579 37,000  Level FlightAware ADS-B
Sun 02:58:26 PM 57.7960 98.5930 119° Southeast 503 579 37,000  Level FlightAware ADS-B
Sun 02:59:02 PM 57.7620 98.7100 119° Southeast 503 579 37,000  Level FlightAware ADS-B
Sun 02:59:37 PM 57.6950 98.9150 121° Southeast 508 585 37,000  Level FlightAware ADS-B
Sun 03:00:26 PM 57.6460 99.0730 120° Southeast 508 585 37,000  Level FlightAware ADS-B
Sun 03:01:03 PM 57.6090 99.1930 120° Southeast 508 585 37,000  Level FlightAware ADS-B
Sun 03:01:39 PM 57.5730 99.3090 120° Southeast 508 585 37,000  Level FlightAware ADS-B
Sun 03:02:15 PM 57.5370 99.4250 120° Southeast 508 585 37,000  Level FlightAware ADS-B
Sun 03:02:41 PM 57.5110 99.5090 120° Southeast 508 585 37,000  Level FlightAware ADS-B
Sun 03:03:17 PM 57.4750 99.6240 120° Southeast 508 585 37,000  Level FlightAware ADS-B
Sun 03:04:16 PM 57.4160 99.8140 120° Southeast 508 585 37,000  Level FlightAware ADS-B
Sun 03:04:55 PM 57.3770 99.9390 120° Southeast 508 585 37,000  Level FlightAware ADS-B
Sun 03:05:43 PM 57.3290 100.0930 120° Southeast 508 585 37,000  Level FlightAware ADS-B
Sun 03:06:19 PM 57.2930 100.2080 120° Southeast 508 585 37,000  Level FlightAware ADS-B
Sun 03:06:55 PM 57.2570 100.3240 120° Southeast 508 585 37,000  Level FlightAware ADS-B
Sun 03:07:19 PM 57.2330 100.4000 120° Southeast 508 585 37,000  Level FlightAware ADS-B
Sun 03:08:05 PM 57.1870 100.5470 120° Southeast 508 585 37,000  Level FlightAware ADS-B
Sun 03:09:05 PM 57.1270 100.7390 120° Southeast 508 585 37,000 13 Level FlightAware ADS-B
Sun 03:11:00 PM 57.0036 101.1380 119° Southeast  Level Estimated
Sun 03:12:00 PM 56.9387 101.3452 120° Southeast  Level Estimated
Sun 03:13:00 PM 56.8734 101.5516 120° Southeast  Level Estimated
Sun 03:14:00 PM 56.8078 101.7573 120° Southeast  Level Estimated
Sun 03:15:00 PM 56.7419 101.9623 120° Southeast  Level Estimated
Sun 03:16:00 PM 56.6757 102.1665 120° Southeast  Level Estimated
Sun 03:17:00 PM 56.6091 102.3701 121° Southeast  Level Estimated
Sun 03:18:00 PM 56.5422 102.5729 121° Southeast  Level Estimated
Sun 03:19:00 PM 56.4749 102.7750 121° Southeast  Level Estimated
Sun 03:20:00 PM 56.4074 102.9764 121° Southeast  Level Estimated
Sun 03:21:00 PM 56.3395 103.1771 121° Southeast  Level Estimated
Sun 03:22:00 PM 56.2713 103.3770 122° Southeast  Level Estimated
Sun 03:23:00 PM 56.2027 103.5763 122° Southeast  Level Estimated
Sun 03:24:00 PM 56.1339 103.7748 122° Southeast  Level Estimated
Sun 03:25:00 PM 56.0647 103.9726 122° Southeast  Level Estimated
Sun 03:26:00 PM 55.9952 104.1697 122° Southeast  Level Estimated
Sun 03:27:00 PM 55.9254 104.3661 122° Southeast  Level Estimated
Sun 03:28:00 PM 55.8553 104.5618 122° Southeast  Level Estimated
Sun 03:29:00 PM 55.7848 104.7568 123° Southeast  Level Estimated
Sun 03:30:00 PM 55.7141 104.9511 123° Southeast  Level Estimated
Sun 03:31:00 PM 55.6431 105.1447 123° Southeast  Level Estimated
Sun 03:32:00 PM 55.5717 105.3375 123° Southeast  Level Estimated
Sun 03:33:00 PM 55.5001 105.5297 123° Southeast  Level Estimated
Sun 03:34:00 PM 55.4281 105.7212 123° Southeast  Level Estimated
Sun 03:35:00 PM 55.3559 105.9119 124° Southeast  Level Estimated
Sun 03:36:00 PM 55.2834 106.1020 124° Southeast  Level Estimated
Sun 03:37:00 PM 55.2105 106.2914 124° Southeast  Level Estimated
Sun 03:38:00 PM 55.1374 106.4801 124° Southeast  Level Estimated
Sun 03:39:00 PM 55.0640 106.6681 124° Southeast  Level Estimated
Sun 03:40:00 PM 54.9903 106.8554 124° Southeast  Level Estimated
Sun 03:41:00 PM 54.9163 107.0420 125° Southeast  Level Estimated
Sun 03:42:00 PM 54.8420 107.2280 125° Southeast  Level Estimated
Sun 03:43:00 PM 54.7675 107.4132 125° Southeast  Level Estimated
Sun 03:44:00 PM 54.6926 107.5978 125° Southeast  Level Estimated
Sun 03:45:00 PM 54.6175 107.7817 125° Southeast  Level Estimated
Sun 03:46:00 PM 54.5421 107.9649 125° Southeast  Level Estimated
Sun 03:47:00 PM 54.4664 108.1474 125° Southeast  Level Estimated
Sun 03:48:00 PM 54.3905 108.3293 126° Southeast  Level Estimated
Sun 03:49:00 PM 54.3143 108.5105 126° Southeast  Level Estimated
Sun 03:50:00 PM 54.2378 108.6910 126° Southeast  Level Estimated
Sun 03:51:00 PM 54.1610 108.8708 126° Southeast  Level Estimated
Sun 03:52:00 PM 54.0840 109.0500 126° Southeast  Level Estimated
Sun 03:53:00 PM 54.0067 109.2285 126° Southeast  Level Estimated
Sun 03:54:00 PM 53.9292 109.4063 126° Southeast  Level Estimated
Sun 03:55:00 PM 53.8513 109.5835 127° Southeast  Level Estimated
Sun 03:56:00 PM 53.7733 109.7601 127° Southeast  Level Estimated
Sun 03:57:00 PM 53.6950 109.9359 127° Southeast  Level Estimated
Sun 03:58:00 PM 53.6164 110.1112 127° Southeast  Level Estimated
Sun 03:59:00 PM 53.5375 110.2857 127° Southeast  Level Estimated
Sun 04:00:00 PM 53.4584 110.4596 127° Southeast  Level Estimated
Sun 04:01:00 PM 53.3791 110.6329 127° Southeast  Level Estimated
Sun 04:02:00 PM 53.2995 110.8055 128° Southeast  Level Estimated
Sun 04:03:00 PM 53.2196 110.9775 128° Southeast  Level Estimated
Sun 04:04:00 PM 53.1395 111.1489 128° Southeast  Level Estimated
Sun 04:05:00 PM 53.0592 111.3196 128° Southeast  Level Estimated
Sun 04:06:00 PM 52.9786 111.4896 128° Southeast  Level Estimated
Sun 04:07:00 PM 52.8978 111.6590 128° Southeast  Level Estimated
Sun 04:08:00 PM 52.8167 111.8279 128° Southeast  Level Estimated
Sun 04:09:00 PM 52.7354 111.9960 129° Southeast  Level Estimated
Sun 04:10:00 PM 52.6539 112.1636 129° Southeast  Level Estimated
Sun 04:11:00 PM 52.5721 112.3305 129° Southeast  Level Estimated
Sun 04:12:00 PM 52.4901 112.4968 129° Southeast  Level Estimated
Sun 04:13:00 PM 52.4079 112.6624 129° Southeast  Level Estimated
Sun 04:14:00 PM 52.3254 112.8275 129° Southeast  Level Estimated
Sun 04:15:00 PM 52.2427 112.9919 129° Southeast  Level Estimated
Sun 04:16:00 PM 52.1598 113.1558 129° Southeast  Level Estimated
Sun 04:17:00 PM 52.0766 113.3190 130° Southeast  Level Estimated
Sun 04:18:00 PM 51.9932 113.4816 130° Southeast  Level Estimated
Sun 04:19:00 PM 51.9096 113.6436 130° Southeast  Level Estimated
Sun 04:20:00 PM 51.8258 113.8050 130° Southeast  Level Estimated
Sun 04:21:00 PM 51.7418 113.9658 130° Southeast  Level Estimated
Sun 04:22:00 PM 51.6575 114.1260 130° Southeast  Level Estimated
Sun 04:23:00 PM 51.5730 114.2856 130° Southeast  Level Estimated
Sun 04:24:00 PM 51.4883 114.4446 131° Southeast  Level Estimated
Sun 04:25:00 PM 51.4034 114.6031 131° Southeast  Level Estimated
Sun 04:26:00 PM 51.3183 114.7609 131° Southeast  Level Estimated
Sun 04:27:00 PM 51.2330 114.9182 131° Southeast  Level Estimated
Sun 04:28:00 PM 51.1474 115.0748 131° Southeast  Level Estimated
Sun 04:29:00 PM 51.0617 115.2309 131° Southeast  Level Estimated
Sun 04:30:00 PM 50.9757 115.3864 131° Southeast  Level Estimated
Sun 04:31:00 PM 50.8895 115.5414 131° Southeast  Level Estimated
Sun 04:32:00 PM 50.8032 115.6957 131° Southeast  Level Estimated
Sun 04:33:00 PM 50.7166 115.8495 132° Southeast  Level Estimated
Sun 04:34:00 PM 50.6298 116.0027 132° Southeast  Level Estimated
Sun 04:35:00 PM 50.5429 116.1554 132° Southeast  Level Estimated
Sun 04:36:00 PM 50.4557 116.3075 132° Southeast  Level Estimated
Sun 04:37:00 PM 50.3683 116.4590 132° Southeast  Level Estimated
Sun 04:38:00 PM 50.2808 116.6100 132° Southeast  Level Estimated
Sun 04:39:00 PM 50.1930 116.7604 132° Southeast  Level Estimated
Sun 04:40:00 PM 50.1050 116.9103 132° Southeast  Level Estimated
Sun 04:41:00 PM 50.0169 117.0596 133° Southeast  Level Estimated
Sun 04:42:00 PM 49.9285 117.2084 133° Southeast  Level Estimated
Sun 04:43:00 PM 49.8400 117.3566 133° Southeast  Level Estimated
Sun 04:44:00 PM 49.7513 117.5043 133° Southeast  Level Estimated
Sun 04:45:00 PM 49.6624 117.6515 133° Southeast  Level Estimated
Sun 04:46:00 PM 49.5733 117.7981 133° Southeast  Level Estimated
Sun 04:47:00 PM 49.4840 117.9442 133° Southeast  Level Estimated
Sun 04:48:00 PM 49.3946 118.0897 133° Southeast  Level Estimated
Sun 04:49:00 PM 49.3049 118.2347 133° Southeast  Level Estimated
Sun 04:50:00 PM 49.2151 118.3792 134° Southeast  Level Estimated
Sun 04:51:00 PM 49.1251 118.5231 134° Southeast  Level Estimated
Sun 04:52:00 PM 49.0349 118.6666 134° Southeast  Level Estimated
Sun 04:53:00 PM 48.9446 118.8095 134° Southeast  Level Estimated
Sun 04:54:00 PM 48.8540 118.9519 134° Southeast  Level Estimated
Sun 04:55:00 PM 48.7633 119.0938 134° Southeast  Level Estimated
Sun 04:56:00 PM 48.6725 119.2352 134° Southeast  Level Estimated
Sun 04:57:00 PM 48.5814 119.3761 134° Southeast  Level Estimated
Sun 04:58:00 PM 48.4902 119.5164 134° Southeast  Level Estimated
Sun 04:59:00 PM 48.3988 119.6563 135° Southeast  Level Estimated
Sun 05:00:00 PM 48.3072 119.7956 135° Southeast  Level Estimated
Sun 05:01:00 PM 48.2155 119.9345 135° Southeast  Level Estimated
Sun 05:02:00 PM 48.1236 120.0728 135° Southeast  Level Estimated
Sun 05:03:00 PM 48.0316 120.2107 135° Southeast  Level Estimated
Sun 05:04:00 PM 47.9393 120.3481 135° Southeast  Level Estimated
Sun 05:05:00 PM 47.8469 120.4849 135° Southeast  Level Estimated
Sun 05:06:00 PM 47.7544 120.6213 135° Southeast  Level Estimated
Sun 05:07:00 PM 47.6617 120.7572 135° Southeast  Level Estimated
Sun 05:08:00 PM 47.5688 120.8926 135° Southeast  Level Estimated
Sun 05:09:00 PM 47.4758 121.0276 136° Southeast  Level Estimated
Sun 05:10:00 PM 47.3826 121.1621 136° Southeast  Level Estimated
Sun 05:11:00 PM 47.2892 121.2961 136° Southeast  Level Estimated
Sun 05:12:00 PM 47.1957 121.4296 136° Southeast  Level Estimated
Sun 05:13:00 PM 47.1021 121.5626 136° Southeast  Level Estimated
Sun 05:14:00 PM 47.0083 121.6952 136° Southeast  Level Estimated
Sun 05:15:00 PM 46.9143 121.8273 136° Southeast  Level Estimated
Sun 05:16:00 PM 46.8202 121.9590 136° Southeast  Level Estimated
Sun 05:17:00 PM 46.7259 122.0902 136° Southeast  Level Estimated
Sun 05:18:00 PM 46.6315 122.2209 136° Southeast  Level Estimated
Sun 05:19:00 PM 46.5370 122.3512 137° Southeast  Level Estimated
Sun 05:20:00 PM 46.4422 122.4810 137° Southeast  Level Estimated
Sun 05:21:00 PM 46.3474 122.6104 137° Southeast  Level Estimated
Sun 05:22:00 PM 46.2524 122.7393 137° Southeast  Level Estimated
Sun 05:23:00 PM 46.1573 122.8678 137° Southeast  Level Estimated
Sun 05:24:00 PM 46.0620 122.9958 137° Southeast  Level Estimated
Sun 05:25:00 PM 45.9665 123.1234 137° Southeast  Level Estimated
Sun 05:26:00 PM 45.8710 123.2506 137° Southeast  Level Estimated
Sun 05:27:00 PM 45.7753 123.3773 137° Southeast  Level Estimated
Sun 05:28:00 PM 45.6794 123.5036 137° Southeast  Level Estimated
Sun 05:29:00 PM 45.5834 123.6294 137° Southeast  Level Estimated
Sun 05:30:00 PM 45.4873 123.7549 138° Southeast  Level Estimated
Sun 05:31:00 PM 45.3910 123.8799 138° Southeast  Level Estimated
Sun 05:32:00 PM 45.2946 124.0044 138° Southeast  Level Estimated
Sun 05:33:00 PM 45.1981 124.1286 138° Southeast  Level Estimated
Sun 05:34:00 PM 45.1014 124.2523 138° Southeast  Level Estimated
Sun 05:35:00 PM 45.0046 124.3756 138° Southeast  Level Estimated
Sun 05:36:00 PM 44.9077 124.4985 138° Southeast  Level Estimated
Sun 05:37:00 PM 44.8106 124.6210 138° Southeast  Level Estimated
Sun 05:38:00 PM 44.7134 124.7430 138° Southeast  Level Estimated
Sun 05:39:00 PM 44.6161 124.8647 138° Southeast  Level Estimated
Sun 05:40:00 PM 44.5186 124.9860 138° Southeast  Level Estimated
Sun 05:41:00 PM 44.4210 125.1068 138° Southeast  Level Estimated
Sun 05:42:00 PM 44.3233 125.2272 139° Southeast  Level Estimated
Sun 05:43:00 PM 44.2255 125.3473 139° Southeast  Level Estimated
Sun 05:44:00 PM 44.1275 125.4669 139° Southeast  Level Estimated
Sun 05:44:02 PM 44.6340 127.7860 139° Southeast 479 551 39,100  Level FlightAware ADS-B
Sun 05:44:47 PM 44.5680 127.8860 133° Southeast 477 549 39,100  Level FlightAware ADS-B
Sun 05:45:00 PM 44.0294 125.5862 139° Southeast  Level Estimated
Sun 05:45:36 PM 44.5070 127.9820 132° Southeast 477 549 39,100  Level FlightAware ADS-B
Sun 05:46:12 PM 44.4620 128.0530 132° Southeast 477 549 39,100  Level FlightAware ADS-B
Sun 05:47:00 PM 44.4010 128.1460 133° Southeast 477 549 39,100  Level FlightAware ADS-B
Sun 05:47:48 PM 44.3410 128.2400 132° Southeast 477 549 39,100  Level FlightAware ADS-B
Sun 05:48:24 PM 44.2960 128.3100 132° Southeast 477 549 39,100  Level FlightAware ADS-B
Sun 05:49:25 PM 44.2190 128.4290 132° Southeast 477 549 39,100  Level FlightAware ADS-B
Sun 05:50:14 PM 44.1580 128.5240 132° Southeast 477 549 39,100  Level FlightAware ADS-B
Sun 05:51:02 PM 44.0980 128.6170 132° Southeast 477 549 39,100  Level FlightAware ADS-B
Sun 05:51:38 PM 44.0520 128.6870 132° Southeast 477 549 39,100  Level FlightAware ADS-B
Sun 05:52:03 PM 44.0210 128.7360 131° Southeast 477 549 39,100  Level FlightAware ADS-B
Sun 05:53:16 PM 43.7000 128.8510 165° South 476 548 39,100  Level FlightAware ADS-B
Sun 05:54:07 PM 43.6040 128.9190 153° Southeast 476 548 39,100  Level FlightAware ADS-B
Sun 05:54:51 PM 43.5180 128.9790 153° Southeast 477 549 39,100  Level FlightAware ADS-B
Sun 05:55:28 PM 43.4450 129.0300 153° Southeast 477 549 39,100  Level FlightAware ADS-B
Sun 05:56:28 PM 43.3250 129.1170 152° Southeast 477 549 39,100  Level FlightAware ADS-B
Sun 05:56:33 PM 43.3170 129.1230 151° Southeast 477 549 39,100  Level FlightAware ADS-B
Sun 05:57:38 PM 43.1890 129.2210 151° Southeast 477 549 39,100  Level FlightAware ADS-B
Sun 05:58:29 PM 43.1020 129.2870 151° Southeast 477 549 39,100  Level FlightAware ADS-B
Sun 05:59:17 PM 43.0020 129.3620 151° Southeast 478 550 39,100  Level FlightAware ADS-B
Sun 05:59:55 PM 42.9330 129.4140 151° Southeast 479 551 39,100  Level FlightAware ADS-B
Sun 06:00:51 PM 42.8200 129.4970 152° Southeast 478 550 39,100  Level FlightAware ADS-B
Sun 06:01:38 PM 42.7340 129.5550 154° Southeast 477 549 39,100  Level FlightAware ADS-B
Sun 06:02:18 PM 42.6510 129.6120 153° Southeast 476 548 39,100  Level FlightAware ADS-B
Sun 06:02:38 PM 42.6070 129.6420 153° Southeast 476 548 39,100 -76 Level FlightAware ADS-B
Sun 06:03:37 PM 42.4880 129.7240 153° Southeast 473 544 39,000 -52 Descending FlightAware ADS-B
Sun 06:04:33 PM 42.3890 129.7960 152° Southeast 471 542 39,000  Level FlightAware ADS-B
Sun 06:07:00 PM 42.1123 130.0106 150° Southeast  Level Estimated
Sun 06:07:13 PM 42.0820 130.0290 150° Southeast 476 548 39,000  Level FlightAware ADS-B
Sun 06:08:42 PM 41.9060 130.1620 151° Southeast 473 544 39,000  Level FlightAware ADS-B
Sun 06:09:22 PM 41.8290 130.2190 151° Southeast 473 544 39,000  Level FlightAware ADS-B
Sun 06:10:12 PM 41.7330 130.2900 151° Southeast 474 545 39,000  Level FlightAware ADS-B
Sun 06:10:58 PM 41.6480 130.3540 151° Southeast 474 545 39,000  Level FlightAware ADS-B
Sun 06:12:56 PM 41.4320 130.5130 151° Southeast 471 542 39,000  Level FlightAware ADS-B
Sun 06:15:00 PM 41.1977 130.6893 150° Southeast  Level Estimated
Sun 06:15:32 PM 41.1790 130.7000 150° Southeast 471 542 39,000  Level FlightAware ADS-B
Sun 06:16:08 PM 41.1210 130.7430 151° Southeast 471 542 39,000  Level FlightAware ADS-B
Sun 06:18:32 PM 40.8880 130.9140 151° Southeast 471 542 39,000  Level FlightAware ADS-B
Sun 06:19:00 PM 40.7955 130.9851 151° Southeast  Level Estimated
Sun 06:19:08 PM 40.8290 130.9570 151° Southeast 471 542 39,000  Level FlightAware ADS-B
Sun 06:19:56 PM 40.7520 131.0140 151° Southeast 471 542 39,000  Level FlightAware ADS-B
Sun 06:21:31 PM 40.5980 131.1260 151° Southeast 471 542 39,000  Level FlightAware ADS-B
Sun 06:23:52 PM 40.1900 131.4050 151° Southeast 474 545 39,000  Level FlightAware ADS-B
Sun 06:24:00 PM 40.3154 131.3327 151° Southeast  Level Estimated
Sun 06:24:40 PM 40.1110 131.4600 152° Southeast 474 545 39,000  Level FlightAware ADS-B
Sun 06:25:40 PM 40.0130 131.5290 152° Southeast 474 545 39,000  Level FlightAware ADS-B
Sun 06:26:05 PM 39.9720 131.5570 152° Southeast 474 545 39,000  Level FlightAware ADS-B
Sun 06:28:53 PM 39.6950 131.7490 151° Southeast 474 545 39,000  Level FlightAware ADS-B
Sun 06:29:00 PM 39.6397 131.7964 151° Southeast  Level Estimated
Sun 06:29:29 PM 39.6360 131.7900 152° Southeast 474 545 39,000  Level FlightAware ADS-B
Sun 06:30:54 PM 39.4960 131.8860 152° Southeast 474 545 39,000  Level FlightAware ADS-B
Sun 06:31:52 PM 39.4000 131.9520 152° Southeast 474 545 39,000  Level FlightAware ADS-B
Sun 06:32:29 PM 39.3400 131.9940 152° Southeast 474 545 39,000  Level FlightAware ADS-B
Sun 06:35:00 PM 39.0528 132.1978 151° Southeast  Level Estimated
Sun 06:36:00 PM 38.9380 132.2788 151° Southeast  Level Estimated
Sun 06:37:00 PM 38.8231 132.3595 151° Southeast  Level Estimated
Sun 06:38:00 PM 38.7081 132.4400 151° Southeast  Level Estimated
Sun 06:39:00 PM 38.5931 132.5202 151° Southeast  Level Estimated
Sun 06:40:00 PM 38.4780 132.6001 151° Southeast  Level Estimated
Sun 06:41:00 PM 38.3629 132.6798 152° Southeast  Level Estimated
Sun 06:42:00 PM 38.2477 132.7592 152° Southeast  Level Estimated
Sun 06:43:00 PM 38.1325 132.8384 152° Southeast  Level Estimated
Sun 06:44:00 PM 38.0172 132.9173 152° Southeast  Level Estimated
Sun 06:45:00 PM 37.9019 132.9960 152° Southeast  Level Estimated
Sun 06:46:00 PM 37.7865 133.0744 152° Southeast  Level Estimated
Sun 06:47:00 PM 37.6710 133.1526 152° Southeast  Level Estimated
Sun 06:48:00 PM 37.5555 133.2306 152° Southeast  Level Estimated
Sun 06:49:00 PM 37.4400 133.3083 152° Southeast  Level Estimated
Sun 06:50:00 PM 37.3244 133.3858 152° Southeast  Level Estimated
Sun 06:51:00 PM 37.2088 133.4630 152° Southeast  Level Estimated
Sun 06:52:00 PM 37.0931 133.5400 152° Southeast  Level Estimated
Sun 06:53:00 PM 36.9773 133.6167 152° Southeast  Level Estimated
Sun 06:53:25 PM 36.6420 133.0140 152° Southeast 469 540 39,000  Level FlightAware ADS-B
Sun 06:54:05 PM 36.5640 133.0630 153° Southeast 466 536 38,400 -900 Descending FlightAware ADS-B
Sun 06:54:45 PM 36.4900 133.1100 153° Southeast 450 518 37,800 -933 Descending FlightAware ADS-B
Sun 06:55:35 PM 36.3980 133.1680 153° Southeast 456 525 37,000 -1,000 Descending FlightAware ADS-B
Sun 06:56:15 PM 36.3160 133.2180 154° Southeast 467 537 36,300 -988 Descending FlightAware ADS-B
Sun 06:57:00 PM 36.2290 133.2730 153° Southeast 454 522 35,600 -918 Descending FlightAware ADS-B
Sun 06:57:40 PM 36.1560 133.3190 153° Southeast 433 498 35,000 -975 Descending FlightAware ADS-B
Sun 06:58:20 PM 36.0880 133.3610 153° Southeast 415 478 34,300 -1,125 Descending FlightAware ADS-B
Sun 06:59:00 PM 36.0190 133.4030 154° Southeast 399 459 33,500 -1,341 Descending FlightAware ADS-B
Sun 06:59:45 PM 35.9440 133.4490 154° Southeast 395 455 32,400 -1,467 Descending FlightAware ADS-B
Sun 07:02:00 PM 35.7338 133.7037 135° Southeast  Level Estimated
Sun 07:03:00 PM 35.6402 133.8165 136° Southeast  Level Estimated
Sun 07:04:00 PM 35.5465 133.9290 136° Southeast  Level Estimated
Sun 07:05:00 PM 35.4527 134.0413 136° Southeast  Level Estimated
Sun 07:06:00 PM 35.3588 134.1533 136° Southeast  Level Estimated
Sun 07:07:00 PM 35.2648 134.2650 136° Southeast  Level Estimated
Sun 07:08:00 PM 35.1707 134.3765 136° Southeast  Level Estimated
Sun 07:09:00 PM 35.0765 134.4877 136° Southeast  Level Estimated
Sun 07:10:00 PM 34.9822 134.5987 136° Southeast  Level Estimated
Sun 07:11:00 PM 34.8878 134.7094 136° Southeast  Level Estimated
Sun 07:12:00 PM 34.7932 134.8199 136° Southeast  Level Estimated
Sun 07:13:00 PM 34.6986 134.9301 136° Southeast  Level Estimated
Sun 07:14:00 PM 34.6039 135.0400 136° Southeast  Level Estimated
Sun 07:15:00 PM 34.5091 135.1497 136° Southeast  Level Estimated
Sun 07:16:00 PM 34.4273 135.2441 136° Southeast  Level Estimated
Sun 07:17:00 PM 34.4273 135.2441 158° South  Level Estimated
Sun 07:18:00 PM 34.4273 135.2441 158° South  Level Estimated
Sun 07:19:00 PM 34.4273 135.2441 158° South  Level Estimated
Sun 07:20:00 PM 34.4273 135.2441 158° South  Level Estimated
Sun 07:21:00 PM 34.4273 135.2441 158° South  Level Estimated
Sun 07:22:00 PM 34.4273 135.2441 158° South  Level Estimated
Sun 07:23:00 PM 34.4273 135.2441 158° South  Level Estimated
Sun 07:24:00 PM 34.4273 135.2441 158° South  Level Estimated
Sun 07:25:00 PM 34.4273 135.2441 158° South  Level Estimated
Sun 07:26:00 PM 34.4273 135.2441 158° South  Level Estimated
Sun 07:27:00 PM 34.4273 135.2441 158° South  Level Estimated
Sun 07:28:00 PM 34.4273 135.2441 158° South  Level Estimated
Sun 07:29:00 PM 34.4273 135.2441 158° South  Level Estimated
Sun 07:30:00 PM 34.4273 135.2441 158° South  Level Estimated
Sun 07:31:00 PM 34.4273 135.2441 158° South  Level Estimated
Sun 07:32:00 PM 34.4273 135.2441 158° South  Level Estimated
Sun 07:33:00 PM 34.4273 135.2441 158° South  Level Estimated
Sun 07:34:00 PM 34.4273 135.2441 158° South  Level Estimated
Sun 07:35:00 PM 34.4273 135.2441 158° South  Level Estimated
Sun 07:36:00 PM 34.4273 135.2441 158° South  Level Estimated
Sun 07:37:00 PM 34.4273 135.2441 158° South  Level Estimated
Sun 07:38:00 PM 34.4273 135.2441 158° South  Level Estimated

Login

Don't have an account? Register now (free) for customized features, flight alerts, and more!